createdAt,value
2022-11-27T00:01:33.659Z,8.60
2022-11-27T00:04:39.637Z,10.93
2022-11-27T00:07:46.135Z,9.97
2022-11-27T00:10:54.222Z,9.73
2022-11-27T00:14:00.996Z,15.40
2022-11-27T00:17:07.746Z,14.23
2022-11-27T00:20:14.976Z,15.83
2022-11-27T00:23:32.579Z,9.07
2022-11-27T00:26:40.693Z,12.50
2022-11-27T00:30:00.483Z,15.93
2022-11-27T00:33:06.760Z,12.90
2022-11-27T00:36:27.705Z,11.63
2022-11-27T00:39:34.189Z,14.10
2022-11-27T00:42:41.825Z,11.93
2022-11-27T00:45:50.742Z,12.40
2022-11-27T00:48:57.668Z,15.30
2022-11-27T00:52:03.808Z,10.97
2022-11-27T00:55:10.815Z,11.90
2022-11-27T00:58:18.306Z,10.77
2022-11-27T01:01:26.594Z,13.17
2022-11-27T01:04:32.828Z,12.10
2022-11-27T01:07:39.082Z,8.00
2022-11-27T01:10:54.585Z,10.07
2022-11-27T01:14:05.050Z,8.30
2022-11-27T01:17:11.334Z,7.67
2022-11-27T01:20:17.461Z,8.33
2022-11-27T01:23:24.156Z,8.40
2022-11-27T01:26:31.279Z,9.97
2022-11-27T01:29:39.113Z,8.60
2022-11-27T01:32:45.244Z,8.13
2022-11-27T01:35:56.685Z,7.60
2022-11-27T01:39:03.326Z,8.60
2022-11-27T01:42:11.920Z,7.63
2022-11-27T01:45:22.289Z,9.67
2022-11-27T01:48:29.012Z,9.73
2022-11-27T01:51:36.485Z,8.13
2022-11-27T01:54:47.994Z,7.13
2022-11-27T01:57:58.073Z,9.37
2022-11-27T02:01:06.612Z,9.77
2022-11-27T02:04:13.338Z,10.83
2022-11-27T02:07:19.393Z,10.17
2022-11-27T02:10:32.920Z,8.20
2022-11-27T02:13:58.929Z,7.70
2022-11-27T02:17:17.171Z,8.90
2022-11-27T02:20:48.690Z,8.27
2022-11-27T02:24:19.276Z,9.17
2022-11-27T02:28:03.872Z,8.80
2022-11-27T02:31:17.484Z,8.97
2022-11-27T02:34:28.122Z,10.27
2022-11-27T02:37:39.977Z,10.00
2022-11-27T02:40:53.079Z,9.30
2022-11-27T02:44:01.838Z,11.43
2022-11-27T02:47:11.297Z,10.17
2022-11-27T02:50:34.341Z,13.30
2022-11-27T02:53:45.939Z,15.23
2022-11-27T02:56:53.881Z,16.63
2022-11-27T03:00:02.071Z,14.77
2022-11-27T03:03:13.423Z,12.47
2022-11-27T03:06:22.257Z,12.60
2022-11-27T03:09:34.418Z,13.13
2022-11-27T03:12:40.834Z,12.00
2022-11-27T03:15:57.443Z,8.70
2022-11-27T03:19:13.780Z,9.20
2022-11-27T03:22:20.220Z,9.13
2022-11-27T03:25:26.782Z,9.87
2022-11-27T03:28:33.984Z,10.77
2022-11-27T03:31:40.355Z,8.60
2022-11-27T03:34:49.239Z,14.47
2022-11-27T03:37:56.964Z,11.33
2022-11-27T03:41:08.813Z,13.70
2022-11-27T03:44:23.859Z,14.40
2022-11-27T03:47:49.993Z,27.53
2022-11-27T03:51:07.302Z,17.53
2022-11-27T03:54:25.350Z,21.07
2022-11-27T03:57:36.039Z,21.97
2022-11-27T04:00:45.655Z,23.13
2022-11-27T04:03:52.148Z,15.90
2022-11-27T04:07:14.037Z,14.67
2022-11-27T04:10:20.705Z,16.83
2022-11-27T04:13:26.989Z,13.97
2022-11-27T04:16:33.139Z,17.40
2022-11-27T04:19:39.854Z,12.07
2022-11-27T04:22:47.373Z,15.50
2022-11-27T04:25:53.492Z,14.57
2022-11-27T04:28:59.756Z,11.37
2022-11-27T04:32:06.566Z,11.00
2022-11-27T04:35:12.932Z,12.37
2022-11-27T04:38:20.921Z,14.47
2022-11-27T04:41:28.408Z,13.07
2022-11-27T04:44:34.847Z,13.93
2022-11-27T04:47:41.548Z,13.80
2022-11-27T04:50:47.581Z,13.80
2022-11-27T04:53:55.262Z,24.07
2022-11-27T04:57:01.560Z,26.60
2022-11-27T05:00:09.051Z,20.10
2022-11-27T05:03:15.633Z,19.93
2022-11-27T05:06:22.939Z,21.67
2022-11-27T05:09:31.014Z,28.13
2022-11-27T05:12:51.542Z,24.57
2022-11-27T05:15:58.043Z,19.67
2022-11-27T05:19:04.446Z,16.87
2022-11-27T05:22:10.841Z,26.63
2022-11-27T05:25:18.677Z,25.27
2022-11-27T05:28:26.962Z,21.47
2022-11-27T05:31:33.544Z,16.50
2022-11-27T05:34:40.228Z,18.30
2022-11-27T05:37:46.577Z,18.30
2022-11-27T05:40:54.326Z,20.23
2022-11-27T05:44:00.465Z,26.67
2022-11-27T05:47:06.659Z,21.80
2022-11-27T05:50:13.032Z,25.77
2022-11-27T05:53:19.411Z,26.70
2022-11-27T05:56:27.034Z,23.70
2022-11-27T05:59:33.232Z,19.03
2022-11-27T06:02:39.512Z,23.63
2022-11-27T06:05:46.210Z,18.60
2022-11-27T06:08:52.450Z,18.30
2022-11-27T06:12:00.535Z,15.83
2022-11-27T06:15:07.201Z,25.57
2022-11-27T06:18:14.144Z,19.30
2022-11-27T06:21:21.321Z,21.23
2022-11-27T06:24:27.985Z,25.20
2022-11-27T06:27:36.245Z,24.50
2022-11-27T06:30:42.704Z,34.73
2022-11-27T06:33:49.750Z,34.03
2022-11-27T06:36:56.076Z,19.57
2022-11-27T06:40:02.347Z,71.13
2022-11-27T06:43:10.067Z,23.20
2022-11-27T06:46:19.128Z,22.10
2022-11-27T06:49:25.774Z,24.50
2022-11-27T06:52:45.778Z,17.80
2022-11-27T06:55:51.737Z,17.27
2022-11-27T06:59:01.215Z,17.83
2022-11-27T07:02:07.663Z,16.30
2022-11-27T07:05:14.009Z,18.83
2022-11-27T07:08:20.215Z,17.13
2022-11-27T07:11:28.624Z,19.23
2022-11-27T07:14:36.241Z,15.23
2022-11-27T07:17:42.835Z,19.17
2022-11-27T07:20:56.421Z,23.00
2022-11-27T07:24:03.183Z,18.07
2022-11-27T07:27:09.307Z,16.30
2022-11-27T07:30:17.469Z,13.40
2022-11-27T07:33:23.792Z,13.37
2022-11-27T07:36:31.995Z,14.57
2022-11-27T07:40:00.995Z,21.43
2022-11-27T07:43:04.463Z,25.27
2022-11-27T07:46:15.104Z,17.30
2022-11-27T07:49:21.812Z,15.13
2022-11-27T07:52:28.691Z,11.30
2022-11-27T07:55:34.865Z,10.50
2022-11-27T07:58:41.266Z,12.27
2022-11-27T08:01:49.384Z,14.53
2022-11-27T08:05:12.713Z,12.27
2022-11-27T08:08:19.809Z,12.03
2022-11-27T08:11:29.784Z,16.33
2022-11-27T08:14:36.328Z,7.10
2022-11-27T08:17:44.264Z,11.07
2022-11-27T08:20:50.800Z,8.53
2022-11-27T08:23:58.276Z,8.33
2022-11-27T08:27:04.981Z,8.20
2022-11-27T08:30:11.684Z,11.27
2022-11-27T08:33:30.086Z,30.83
2022-11-27T08:36:50.063Z,16.10
2022-11-27T08:39:56.092Z,12.73
2022-11-27T08:43:02.611Z,8.13
2022-11-27T08:46:09.628Z,9.67
2022-11-27T08:49:17.315Z,14.97
2022-11-27T08:52:23.376Z,13.37
2022-11-27T08:55:29.844Z,9.83
2022-11-27T08:58:36.327Z,9.17
2022-11-27T09:01:42.506Z,8.03
2022-11-27T09:04:50.100Z,8.93
2022-11-27T09:07:56.930Z,7.67
2022-11-27T09:11:04.385Z,7.17
2022-11-27T09:14:10.797Z,6.10
2022-11-27T09:17:17.269Z,7.63
2022-11-27T09:20:24.932Z,10.47
2022-11-27T09:23:31.525Z,9.50
2022-11-27T09:26:38.058Z,7.03
2022-11-27T09:29:44.385Z,5.90
2022-11-27T09:32:50.725Z,7.77
2022-11-27T09:35:58.610Z,5.87
2022-11-27T09:39:05.320Z,7.47
2022-11-27T09:42:34.545Z,5.10
2022-11-27T09:45:46.118Z,6.60
2022-11-27T09:48:54.688Z,6.30
2022-11-27T09:52:08.190Z,5.63
2022-11-27T09:55:19.288Z,4.90
2022-11-27T09:58:39.001Z,5.50
2022-11-27T10:01:50.676Z,7.87
2022-11-27T10:05:13.336Z,9.80
2022-11-27T10:08:31.392Z,8.17
2022-11-27T10:11:49.004Z,5.10
2022-11-27T10:15:06.442Z,8.33
2022-11-27T10:18:22.364Z,7.80
2022-11-27T10:21:51.671Z,8.37
2022-11-27T10:25:08.597Z,6.83
2022-11-27T10:28:27.777Z,5.97
2022-11-27T10:31:38.427Z,7.17
2022-11-27T10:34:48.574Z,7.97
2022-11-27T10:38:01.049Z,8.33
2022-11-27T10:41:47.564Z,6.17
2022-11-27T10:44:50.180Z,7.90
2022-11-27T10:47:56.605Z,7.40
2022-11-27T10:51:02.929Z,5.93
2022-11-27T10:54:21.649Z,8.00
2022-11-27T10:57:47.745Z,10.17
2022-11-27T11:01:02.239Z,5.60
2022-11-27T11:04:35.960Z,7.63
2022-11-27T11:07:50.299Z,5.70
2022-11-27T11:11:00.344Z,6.67
2022-11-27T11:14:17.290Z,3.70
2022-11-27T11:17:27.989Z,6.20
2022-11-27T11:20:34.805Z,6.37
2022-11-27T11:23:42.542Z,5.73
2022-11-27T11:26:51.123Z,4.43
2022-11-27T11:30:01.830Z,5.57
2022-11-27T11:33:12.899Z,5.13
2022-11-27T11:36:19.636Z,4.27
2022-11-27T11:39:29.012Z,10.90
2022-11-27T11:42:38.377Z,4.80
2022-11-27T11:45:49.058Z,4.97
2022-11-27T11:49:01.447Z,5.50
2022-11-27T11:52:25.312Z,5.47
2022-11-27T11:55:40.530Z,7.13
2022-11-27T11:58:57.343Z,5.30
2022-11-27T12:02:26.636Z,3.30
2022-11-27T12:05:41.724Z,9.03
2022-11-27T12:09:08.809Z,12.77
2022-11-27T12:12:28.400Z,7.33
2022-11-27T12:15:39.668Z,6.73
2022-11-27T12:19:04.001Z,7.80
2022-11-27T12:22:23.569Z,7.13
2022-11-27T12:25:34.619Z,5.30
2022-11-27T12:28:59.783Z,4.30
2022-11-27T12:32:33.036Z,3.90
2022-11-27T12:35:46.075Z,4.40
2022-11-27T12:39:12.067Z,2.80
2022-11-27T12:42:25.192Z,3.37
2022-11-27T12:45:36.442Z,4.23
2022-11-27T12:48:47.598Z,4.03
2022-11-27T12:52:00.666Z,4.27
2022-11-27T12:55:12.551Z,6.03
2022-11-27T12:58:27.136Z,5.07
2022-11-27T13:01:40.824Z,3.50
2022-11-27T13:04:53.068Z,3.20
2022-11-27T13:08:03.636Z,6.80
2022-11-27T13:11:13.889Z,7.43
2022-11-27T13:14:24.126Z,4.40
2022-11-27T13:17:36.739Z,4.80
2022-11-27T13:20:45.526Z,5.90
2022-11-27T13:23:56.038Z,7.37
2022-11-27T13:27:07.745Z,14.60
2022-11-27T13:30:22.065Z,38.03
2022-11-27T13:33:37.017Z,21.57
2022-11-27T13:36:46.057Z,8.83
2022-11-27T13:40:01.434Z,7.27
2022-11-27T13:43:20.502Z,4.27
2022-11-27T13:46:29.402Z,4.83
2022-11-27T13:49:38.036Z,5.40
2022-11-27T13:52:57.400Z,6.37
2022-11-27T13:56:06.596Z,4.47
2022-11-27T13:59:17.806Z,8.60
2022-11-27T14:02:24.182Z,7.70
2022-11-27T14:05:41.390Z,6.43
2022-11-27T14:08:57.248Z,6.40
2022-11-27T14:12:18.049Z,9.37
2022-11-27T14:15:40.332Z,8.23
2022-11-27T14:18:52.304Z,6.07
2022-11-27T14:21:58.368Z,6.30
2022-11-27T14:25:21.381Z,6.43
2022-11-27T14:28:31.388Z,7.03
2022-11-27T14:31:37.693Z,5.50
2022-11-27T14:34:44.301Z,28.97
2022-11-27T14:37:50.709Z,15.23
2022-11-27T14:41:09.678Z,9.17
2022-11-27T14:44:30.893Z,8.27
2022-11-27T14:47:39.844Z,14.83
2022-11-27T14:51:00.205Z,14.47
2022-11-27T14:54:12.204Z,15.73
2022-11-27T14:57:24.977Z,7.13
2022-11-27T15:00:32.940Z,10.57
2022-11-27T15:03:39.257Z,6.10
2022-11-27T15:06:47.472Z,11.27
2022-11-27T15:09:56.273Z,11.43
2022-11-27T15:13:04.951Z,15.40
2022-11-27T15:16:17.771Z,10.67
2022-11-27T15:19:30.762Z,10.70
2022-11-27T15:22:38.487Z,12.77
2022-11-27T15:25:47.111Z,10.80
2022-11-27T15:28:54.906Z,9.17
2022-11-27T15:32:21.870Z,22.33
2022-11-27T15:35:46.982Z,13.20
2022-11-27T15:39:06.981Z,18.03
2022-11-27T15:42:14.714Z,11.40
2022-11-27T15:45:21.100Z,14.13
2022-11-27T15:48:28.931Z,19.87
2022-11-27T15:51:35.074Z,16.00
2022-11-27T15:54:41.436Z,19.03
2022-11-27T15:57:47.853Z,26.03
2022-11-27T16:00:54.470Z,15.40
2022-11-27T16:04:02.256Z,12.00
2022-11-27T16:07:08.561Z,15.40
2022-11-27T16:10:14.857Z,10.80
2022-11-27T16:13:20.867Z,12.77
2022-11-27T16:16:27.744Z,13.10
2022-11-27T16:19:35.517Z,9.43
2022-11-27T16:22:41.460Z,28.50
2022-11-27T16:25:47.828Z,8.33
2022-11-27T16:28:54.098Z,13.77
2022-11-27T16:32:01.402Z,14.20
2022-11-27T16:35:09.972Z,16.03
2022-11-27T16:38:16.299Z,23.73
2022-11-27T16:41:24.136Z,21.17
2022-11-27T16:44:30.282Z,16.00
2022-11-27T16:47:36.470Z,18.63
2022-11-27T16:50:46.806Z,18.67
2022-11-27T16:53:54.800Z,26.17
2022-11-27T16:57:01.151Z,23.63
2022-11-27T17:00:09.044Z,15.57
2022-11-27T17:03:15.041Z,14.50
2022-11-27T17:06:24.405Z,16.07
2022-11-27T17:09:31.573Z,18.93
2022-11-27T17:12:38.353Z,22.23
2022-11-27T17:15:58.928Z,17.80
2022-11-27T17:19:05.831Z,20.23
2022-11-27T17:22:13.511Z,17.90
2022-11-27T17:25:19.933Z,19.43
2022-11-27T17:28:26.137Z,20.67
2022-11-27T17:31:35.586Z,20.77
2022-11-27T17:34:42.290Z,18.97
2022-11-27T17:37:50.221Z,16.53
2022-11-27T17:41:01.578Z,15.93
2022-11-27T17:44:08.767Z,17.10
2022-11-27T17:47:15.113Z,16.20
2022-11-27T17:50:21.534Z,17.47
2022-11-27T17:53:29.935Z,13.00
2022-11-27T17:56:36.447Z,18.10
2022-11-27T17:59:43.057Z,17.67
2022-11-27T18:02:49.592Z,17.20
2022-11-27T18:05:56.879Z,19.73
2022-11-27T18:09:05.068Z,17.07
2022-11-27T18:12:11.638Z,15.60
2022-11-27T18:15:29.214Z,17.80
2022-11-27T18:18:49.213Z,13.60
2022-11-27T18:21:55.499Z,11.97
2022-11-27T18:25:03.123Z,13.53
2022-11-27T18:28:09.278Z,18.23
2022-11-27T18:31:17.164Z,13.93
2022-11-27T18:34:23.443Z,12.20
2022-11-27T18:37:30.074Z,11.27
2022-11-27T18:40:41.469Z,10.87
2022-11-27T18:43:49.456Z,13.07
2022-11-27T18:46:55.791Z,27.50
2022-11-27T18:50:03.747Z,46.53
2022-11-27T18:53:10.349Z,28.70
2022-11-27T18:56:21.059Z,14.23
2022-11-27T18:59:27.658Z,28.20
2022-11-27T19:02:33.792Z,20.40
2022-11-27T19:05:50.389Z,34.27
2022-11-27T19:08:57.729Z,25.90
2022-11-27T19:12:06.201Z,26.33
2022-11-27T19:15:12.806Z,33.93
2022-11-27T19:18:19.493Z,15.80
2022-11-27T19:21:29.289Z,17.07
2022-11-27T19:24:35.908Z,22.30
2022-11-27T19:27:43.570Z,12.50
2022-11-27T19:30:50.229Z,22.37
2022-11-27T19:33:58.896Z,16.40
2022-11-27T19:37:33.572Z,18.53
2022-11-27T19:40:41.632Z,14.00
2022-11-27T19:43:49.236Z,11.17
2022-11-27T19:46:55.378Z,8.10
2022-11-27T19:50:01.442Z,7.90
2022-11-27T19:53:07.726Z,10.50
2022-11-27T19:56:27.857Z,6.43
2022-11-27T19:59:35.730Z,7.10
2022-11-27T20:02:42.572Z,6.53
2022-11-27T20:05:48.986Z,8.00
2022-11-27T20:09:01.074Z,8.47
2022-11-27T20:12:07.573Z,9.10
2022-11-27T20:15:16.956Z,11.13
2022-11-27T20:18:23.365Z,9.97
2022-11-27T20:21:29.601Z,11.67
2022-11-27T20:24:44.123Z,11.90
2022-11-27T20:28:02.126Z,11.10
2022-11-27T20:31:15.098Z,12.33
2022-11-27T20:34:37.096Z,13.93
2022-11-27T20:37:43.634Z,12.10
2022-11-27T20:40:50.354Z,11.63
2022-11-27T20:43:57.914Z,12.87
2022-11-27T20:47:05.673Z,10.77
2022-11-27T20:50:13.063Z,6.83
2022-11-27T20:53:19.827Z,5.77
2022-11-27T20:56:26.857Z,4.70
2022-11-27T20:59:32.966Z,4.57
2022-11-27T21:02:41.897Z,9.63
2022-11-27T21:05:48.339Z,5.00
2022-11-27T21:08:55.290Z,5.57
2022-11-27T21:12:02.148Z,4.87
2022-11-27T21:15:09.640Z,6.40
2022-11-27T21:18:17.496Z,6.43
2022-11-27T21:21:23.964Z,7.90
2022-11-27T21:24:30.396Z,4.33
2022-11-27T21:27:37.482Z,3.03
2022-11-27T21:30:43.687Z,3.20
2022-11-27T21:33:53.136Z,3.13
2022-11-27T21:36:59.351Z,3.43
2022-11-27T21:40:08.335Z,3.67
2022-11-27T21:43:14.642Z,4.27
2022-11-27T21:46:22.657Z,5.47
2022-11-27T21:49:30.457Z,4.63
2022-11-27T21:52:36.861Z,4.53
2022-11-27T21:55:43.797Z,5.37
2022-11-27T21:58:50.858Z,7.10
2022-11-27T22:01:58.268Z,6.23
2022-11-27T22:05:07.220Z,4.70
2022-11-27T22:08:13.865Z,4.93
2022-11-27T22:11:23.992Z,6.30
2022-11-27T22:14:30.116Z,6.33
2022-11-27T22:17:36.337Z,5.30
2022-11-27T22:20:44.328Z,5.97
2022-11-27T22:23:50.786Z,5.03
2022-11-27T22:26:57.062Z,7.67
2022-11-27T22:30:03.577Z,5.73
2022-11-27T22:33:09.789Z,6.03
2022-11-27T22:36:20.398Z,5.20
2022-11-27T22:39:26.480Z,3.70
2022-11-27T22:42:32.797Z,4.70
2022-11-27T22:45:41.716Z,5.17
2022-11-27T22:48:48.068Z,4.90
2022-11-27T22:51:55.709Z,4.50
2022-11-27T22:55:02.239Z,4.43
2022-11-27T22:58:09.463Z,5.40
2022-11-27T23:01:17.707Z,4.53
2022-11-27T23:04:23.939Z,3.63
2022-11-27T23:07:32.073Z,4.00
2022-11-27T23:10:40.257Z,4.67
2022-11-27T23:14:00.348Z,4.43
2022-11-27T23:17:06.664Z,4.00
2022-11-27T23:20:13.809Z,5.43
2022-11-27T23:23:21.448Z,10.23
2022-11-27T23:26:27.904Z,5.40
2022-11-27T23:29:33.992Z,5.10
2022-11-27T23:32:40.442Z,4.03
2022-11-27T23:35:46.780Z,4.83
2022-11-27T23:38:54.509Z,4.90
2022-11-27T23:42:14.327Z,4.73
2022-11-27T23:45:20.621Z,5.17
2022-11-27T23:48:26.973Z,3.80
2022-11-27T23:51:34.584Z,3.00
2022-11-27T23:54:42.412Z,4.93
2022-11-27T23:57:49.103Z,3.70
